createdAt,value
2023-04-05T00:20:21.988Z,4.7
2023-04-05T00:24:25.778Z,5.5
2023-04-05T00:26:27.624Z,5
2023-04-05T00:30:31.421Z,6.1
2023-04-05T00:39:44.767Z,6
2023-04-05T00:43:48.578Z,6.4
2023-04-05T00:45:50.486Z,5.2
2023-04-05T00:47:55.646Z,5.2
2023-04-05T00:49:57.464Z,5.2
2023-04-05T00:51:59.348Z,6.2
2023-04-05T00:54:01.243Z,5.3
2023-04-05T00:58:05.030Z,5.5
2023-04-05T01:06:16.228Z,5.4
2023-04-05T01:16:28.428Z,6.6
2023-04-05T01:18:30.291Z,6.1
2023-04-05T01:20:32.177Z,5.2
2023-04-05T01:22:34.013Z,5.5
2023-04-05T01:24:35.880Z,5.2
2023-04-05T01:26:37.784Z,6.4
2023-04-05T01:30:46.253Z,6.6
2023-04-05T01:32:48.143Z,5.4
2023-04-05T01:34:49.995Z,5.9
2023-04-05T01:37:18.810Z,6.9
2023-04-05T01:39:20.738Z,6.4
2023-04-05T01:41:22.593Z,6.5
2023-04-05T01:43:27.631Z,6.3
2023-04-05T01:45:29.525Z,5.9
2023-04-05T01:47:31.472Z,5.4
2023-04-05T01:49:33.294Z,5.9
2023-04-05T01:51:35.198Z,6.1
2023-04-05T01:53:37.060Z,5.7
2023-04-05T01:55:38.923Z,7.3
2023-04-05T01:57:44.024Z,7.1
2023-04-05T01:59:45.884Z,5.6
2023-04-05T02:01:47.746Z,6
2023-04-05T02:03:49.810Z,6.1
2023-04-05T02:05:51.470Z,6.2
2023-04-05T02:07:53.359Z,6.9
2023-04-05T02:12:00.308Z,6.6
2023-04-05T02:16:04.018Z,8
2023-04-05T02:18:05.992Z,6.6
2023-04-05T02:24:11.460Z,6.2
2023-04-05T02:26:16.669Z,7.8
2023-04-05T02:28:18.401Z,5.8
2023-04-05T02:31:22.866Z,6.4
2023-04-05T02:33:24.697Z,6.9
2023-04-05T02:35:26.555Z,6.3
2023-04-05T02:39:34.131Z,5.9
2023-04-05T02:41:36.010Z,6.9
2023-04-05T02:43:37.866Z,6.8
2023-04-05T02:45:39.721Z,6.1
2023-04-05T02:47:41.601Z,7.3
2023-04-05T02:49:43.429Z,7.8
2023-04-05T02:51:45.411Z,6.6
2023-04-05T02:53:50.352Z,6.9
2023-04-05T02:55:52.219Z,7.5
2023-04-05T02:57:54.100Z,7.6
2023-04-05T02:59:55.913Z,6.1
2023-04-05T03:01:57.776Z,7.7
2023-04-05T03:10:08.446Z,6.6
2023-04-05T03:24:24.662Z,7.6
2023-04-05T03:26:26.487Z,5.7
2023-04-05T03:27:29.007Z,7.6
2023-04-05T03:29:30.844Z,6.3
2023-04-05T03:31:32.720Z,8.1
2023-04-05T03:33:34.563Z,7.1
2023-04-05T03:39:43.334Z,6.9
2023-04-05T03:41:45.193Z,6.8
2023-04-05T03:43:47.027Z,7.4
2023-04-05T03:47:50.857Z,7.5
2023-04-05T03:49:55.869Z,9
2023-04-05T03:51:57.666Z,7.2
2023-04-05T03:53:59.499Z,6.9
2023-04-05T03:56:01.334Z,8.7
2023-04-05T03:58:03.189Z,8
2023-04-05T04:00:05.020Z,8.7
2023-04-05T04:08:15.661Z,7.7
2023-04-05T04:10:17.457Z,9.6
2023-04-05T04:12:19.306Z,8.9
2023-04-05T04:16:23.053Z,8.3
2023-04-05T04:18:28.016Z,7.9
2023-04-05T04:23:34.229Z,7.5
2023-04-05T04:25:36.077Z,7.3
2023-04-05T04:27:37.912Z,8
2023-04-05T04:29:39.760Z,7.9
2023-04-05T04:31:44.873Z,9
2023-04-05T04:33:46.645Z,7.8
2023-04-05T04:35:48.548Z,8
2023-04-05T04:37:50.335Z,8.9
2023-04-05T04:41:54.000Z,8.2
2023-04-05T04:48:02.779Z,8.2
2023-04-05T04:52:06.367Z,8.6
2023-04-05T04:54:08.190Z,8.2
2023-04-05T04:56:10.054Z,8.6
2023-04-05T04:58:11.862Z,7.6
2023-04-05T05:02:18.760Z,10.4
2023-04-05T05:04:20.603Z,9.9
2023-04-05T05:06:22.460Z,8.3
2023-04-05T05:08:24.234Z,10.1
2023-04-05T05:16:34.869Z,9.5
2023-04-05T05:18:36.650Z,11.2
2023-04-05T05:23:07.393Z,9.5
2023-04-05T05:25:09.254Z,9.1
2023-04-05T05:27:14.285Z,10.7
2023-04-05T05:29:16.066Z,9.6
2023-04-05T05:31:18.215Z,9.5
2023-04-05T05:33:19.719Z,9
2023-04-05T05:39:25.208Z,10.4
2023-04-05T05:41:30.277Z,13.6
2023-04-05T05:43:32.148Z,11
2023-04-05T05:45:33.968Z,10.2
2023-04-05T05:47:35.810Z,8.3
2023-04-05T05:53:41.289Z,8.9
2023-04-05T05:55:46.345Z,12
2023-04-05T05:57:48.201Z,10.7
2023-04-05T06:01:51.866Z,10.6
2023-04-05T06:03:53.837Z,11.1
2023-04-05T06:05:55.579Z,11
2023-04-05T06:07:57.437Z,10.7
2023-04-05T06:10:02.539Z,9.5
2023-04-05T06:12:04.419Z,8.6
2023-04-05T06:14:06.302Z,10.2
2023-04-05T06:15:08.819Z,12.9
2023-04-05T06:17:10.729Z,10.4
2023-04-05T06:19:12.669Z,8.9
2023-04-05T06:21:14.554Z,9.7
2023-04-05T06:23:19.719Z,7.9
2023-04-05T06:25:21.617Z,8
2023-04-05T06:27:23.607Z,6.3
2023-04-05T06:29:25.516Z,8.3
2023-04-05T06:31:27.617Z,8.3
2023-04-05T06:33:29.425Z,8.2
2023-04-05T06:35:31.383Z,6.9
2023-04-05T06:37:36.538Z,7.5
2023-04-05T06:39:38.496Z,8.2
2023-04-05T06:41:40.469Z,8
2023-04-05T06:45:44.410Z,5.7
2023-04-05T06:47:46.394Z,7.2
2023-04-05T06:49:48.358Z,5.5
2023-04-05T06:51:53.574Z,6.5
2023-04-05T06:53:55.535Z,7.2
2023-04-05T06:55:57.523Z,6.1
2023-04-05T06:57:59.735Z,7.2
2023-04-05T07:02:03.529Z,6.6
2023-04-05T07:04:05.563Z,6.2
2023-04-05T07:06:10.760Z,7
2023-04-05T07:08:12.751Z,6
2023-04-05T07:10:14.752Z,5.4
2023-04-05T07:11:17.250Z,6
2023-04-05T07:13:19.223Z,6.3
2023-04-05T07:15:21.139Z,6.5
2023-04-05T07:17:23.048Z,6.4
2023-04-05T07:19:29.550Z,6.6
2023-04-05T07:23:33.459Z,5.8
2023-04-05T07:25:35.341Z,6
2023-04-05T07:29:39.136Z,6.2
2023-04-05T07:35:48.015Z,7.4
2023-04-05T07:41:53.641Z,6.9
2023-04-05T07:43:55.562Z,6
2023-04-05T07:45:57.493Z,6.8
2023-04-05T07:48:02.739Z,5.9
2023-04-05T07:54:08.664Z,6.1
2023-04-05T07:56:10.632Z,6.6
2023-04-05T07:58:12.506Z,5.6
2023-04-05T08:07:26.177Z,6.1
2023-04-05T08:09:28.170Z,5.6
2023-04-05T08:11:30.181Z,5.7
2023-04-05T08:13:32.188Z,4.9
2023-04-05T08:15:37.337Z,5
2023-04-05T08:17:39.389Z,4.9
2023-04-05T08:19:41.346Z,5.2
2023-04-05T08:21:43.265Z,5.5
2023-04-05T08:23:45.121Z,5
2023-04-05T08:25:47.029Z,5.3
2023-04-05T08:27:48.923Z,4.9
2023-04-05T08:29:54.049Z,4.8
2023-04-05T08:31:56.008Z,3.7
2023-04-05T08:33:57.880Z,4.5
2023-04-05T08:35:59.814Z,4.3
2023-04-05T08:38:01.683Z,4.2
2023-04-05T08:40:03.580Z,4.3
2023-04-05T08:42:05.485Z,3.6
2023-04-05T08:44:10.523Z,4.2
2023-04-05T08:46:12.476Z,4.7
2023-04-05T08:48:14.288Z,3.8
2023-04-05T08:50:16.194Z,4
2023-04-05T08:52:18.084Z,3.9
2023-04-05T08:54:20.093Z,3.8
2023-04-05T08:56:21.885Z,4.5
2023-04-05T08:58:26.885Z,4
2023-04-05T09:02:30.752Z,3
2023-04-05T09:04:59.233Z,4.9
2023-04-05T09:07:01.126Z,4.8
2023-04-05T09:09:03.019Z,4.1
2023-04-05T09:11:08.042Z,3.4
2023-04-05T09:13:09.916Z,4.1
2023-04-05T09:15:11.822Z,3.6
2023-04-05T09:21:17.435Z,3.4
2023-04-05T09:27:26.196Z,4.6
2023-04-05T09:29:28.060Z,3.8
2023-04-05T09:45:46.257Z,4.3
2023-04-05T09:59:03.096Z,3.5
2023-04-05T10:01:16.236Z,3.4
2023-04-05T10:03:06.893Z,4.6
2023-04-05T10:11:17.310Z,3.9
2023-04-05T10:13:19.160Z,4.3
2023-04-05T10:17:22.837Z,3.6
2023-04-05T10:19:24.670Z,4.9
2023-04-05T10:23:31.564Z,5
2023-04-05T10:25:33.372Z,3.6
2023-04-05T10:27:35.241Z,3.5
2023-04-05T10:35:45.951Z,4
2023-04-05T10:52:04.116Z,3.7
2023-04-05T10:54:06.017Z,3.2
2023-04-05T10:55:08.519Z,5.4
2023-04-05T10:57:10.906Z,4.3
2023-04-05T10:59:12.372Z,4.7
2023-04-05T11:03:19.256Z,4.7
2023-04-05T11:05:21.123Z,3.8
2023-04-05T11:07:23.020Z,3.4
2023-04-05T11:11:26.768Z,2.9
2023-04-05T11:15:30.719Z,5.5
2023-04-05T11:17:35.576Z,4.5
2023-04-05T11:19:37.418Z,3.5
2023-04-05T11:21:39.303Z,3.3
2023-04-05T11:23:41.179Z,4.1
2023-04-05T11:25:43.075Z,4.2
2023-04-05T11:27:44.977Z,3.4
2023-04-05T11:31:51.854Z,4.5
2023-04-05T11:33:56.883Z,3.9
2023-04-05T11:39:59.459Z,4
2023-04-05T11:46:08.280Z,3.1
2023-04-05T11:51:14.525Z,4.2
2023-04-05T11:53:16.407Z,3.7
2023-04-05T11:55:18.279Z,4.3
2023-04-05T11:57:20.168Z,3.5
2023-04-05T11:59:25.191Z,3.9
2023-04-05T12:01:26.994Z,2.7
2023-04-05T12:03:29.065Z,7.7
2023-04-05T12:05:30.736Z,3.8
2023-04-05T12:07:32.633Z,3.4
2023-04-05T12:09:34.422Z,3.9
2023-04-05T12:11:36.290Z,3.4
2023-04-05T12:13:41.276Z,3.7
2023-04-05T12:15:43.423Z,4
2023-04-05T12:17:45.018Z,4.1
2023-04-05T12:19:46.668Z,3.2
2023-04-05T12:21:48.537Z,3.8
2023-04-05T12:25:52.237Z,4.3
2023-04-05T12:27:57.270Z,3.7
2023-04-05T12:29:59.171Z,4.2
2023-04-05T12:34:02.989Z,3.6
2023-04-05T12:48:45.672Z,3.2
2023-04-05T12:50:47.559Z,3.1
2023-04-05T12:52:49.409Z,4
2023-04-05T12:54:54.387Z,4.1
2023-04-05T12:56:56.281Z,3.9
2023-04-05T12:58:58.180Z,4.1
2023-04-05T13:01:00.021Z,3.8
2023-04-05T13:03:01.967Z,3.5
2023-04-05T13:05:03.760Z,4.2
2023-04-05T13:07:05.598Z,3.8
2023-04-05T13:09:12.142Z,3.4
2023-04-05T13:11:14.390Z,3.7
2023-04-05T13:13:16.254Z,3.7
2023-04-05T13:15:18.101Z,4.6
2023-04-05T13:17:19.950Z,3.5
2023-04-05T13:19:21.823Z,3.7
2023-04-05T13:21:23.690Z,3.5
2023-04-05T13:25:30.532Z,3.7
2023-04-05T13:27:32.396Z,4
2023-04-05T13:29:34.221Z,4
2023-04-05T13:42:51.016Z,4.7
2023-04-05T13:44:52.883Z,3.8
2023-04-05T13:46:54.759Z,4.2
2023-04-05T13:48:56.606Z,3.6
2023-04-05T13:51:01.624Z,4.7
2023-04-05T13:53:03.481Z,4
2023-04-05T13:55:05.370Z,4.4
2023-04-05T13:57:07.254Z,4.1
2023-04-05T13:59:09.249Z,4.5
2023-04-05T14:01:11.046Z,3.4
2023-04-05T14:03:12.964Z,3.6
2023-04-05T14:05:17.883Z,4.3
2023-04-05T14:09:24.371Z,3.5
2023-04-05T14:11:23.674Z,4.2
2023-04-05T14:13:25.426Z,3.9
2023-04-05T14:15:27.301Z,4.2
2023-04-05T14:17:29.215Z,4.4
2023-04-05T14:19:34.220Z,4.5
2023-04-05T14:21:36.094Z,4.4
2023-04-05T14:23:38.010Z,4
2023-04-05T14:25:40.171Z,4.7
2023-04-05T14:38:56.872Z,4.5
2023-04-05T14:40:58.782Z,3.6
2023-04-05T14:47:08.307Z,4.3
2023-04-05T14:49:10.217Z,4.7
2023-04-05T14:51:12.103Z,4
2023-04-05T14:53:13.988Z,4.2
2023-04-05T14:55:15.898Z,3.5
2023-04-05T14:57:17.783Z,3.7
2023-04-05T14:59:19.712Z,4.8
2023-04-05T15:01:24.924Z,4.3
2023-04-05T15:03:27.098Z,4.4
2023-04-05T15:05:28.708Z,4.5
2023-04-05T15:07:30.596Z,3.8
2023-04-05T15:09:32.489Z,3.8
2023-04-05T15:11:34.377Z,4.5
2023-04-05T15:13:36.285Z,4.3
2023-04-05T15:15:41.354Z,4.3
2023-04-05T15:17:43.241Z,4.6
2023-04-05T15:19:45.109Z,4.7
2023-04-05T15:21:47.016Z,4.7
2023-04-05T15:23:48.898Z,4.7
2023-04-05T15:25:50.839Z,4.4
2023-04-05T15:27:52.742Z,3.5
2023-04-05T15:29:57.781Z,4
2023-04-05T15:31:59.699Z,5.3
2023-04-05T15:34:01.860Z,5
2023-04-05T15:35:04.126Z,4.6
2023-04-05T15:37:06.040Z,3.9
2023-04-05T15:43:14.898Z,5
2023-04-05T15:45:16.842Z,4
2023-04-05T15:53:24.502Z,5.5
2023-04-05T16:03:37.381Z,4.7
2023-04-05T16:05:39.219Z,3.8
2023-04-05T16:09:43.020Z,4.9
2023-04-05T16:11:48.102Z,4.5
2023-04-05T16:13:49.984Z,4.5
2023-04-05T16:15:51.929Z,4.4
2023-04-05T16:17:53.861Z,3.6
2023-04-05T16:21:57.658Z,4.2
2023-04-05T16:23:59.657Z,4.6
2023-04-05T16:26:04.806Z,5.2
2023-04-05T16:32:37.620Z,4.5
2023-04-05T16:40:48.414Z,7.2
2023-04-05T16:55:05.625Z,3.9
2023-04-05T17:01:11.717Z,8.6
2023-04-05T17:03:13.802Z,5.3
2023-04-05T17:05:15.733Z,3.8
2023-04-05T17:07:20.966Z,4.1
2023-04-05T17:09:22.900Z,4.7
2023-04-05T17:11:24.908Z,4.3
2023-04-05T17:13:26.911Z,4.1
2023-04-05T17:17:31.019Z,4.1
2023-04-05T17:19:32.957Z,4.1
2023-04-05T17:21:38.202Z,4.1
2023-04-05T17:23:40.251Z,4.5
2023-04-05T17:25:42.266Z,5
2023-04-05T17:28:46.822Z,4.5
2023-04-05T17:30:48.861Z,3.2
2023-04-05T17:39:00.011Z,5.6
2023-04-05T17:41:02.026Z,4.6
2023-04-05T17:45:06.070Z,5
2023-04-05T17:49:13.337Z,4.2
2023-04-05T17:51:15.347Z,5
2023-04-05T17:53:17.391Z,4.4
2023-04-05T17:55:19.364Z,4.2
2023-04-05T17:57:21.364Z,4.6
2023-04-05T17:59:23.454Z,4.4
2023-04-05T18:01:25.508Z,5.3
2023-04-05T18:03:30.767Z,4.6
2023-04-05T18:05:32.693Z,4
2023-04-05T18:07:34.674Z,4.6
2023-04-05T18:09:36.688Z,4.4
2023-04-05T18:11:38.765Z,4.3
2023-04-05T18:13:40.725Z,4.6
2023-04-05T18:15:42.733Z,5.2
2023-04-05T18:21:51.982Z,4.8
2023-04-05T18:22:54.593Z,5.3
2023-04-05T18:24:56.577Z,5.9
2023-04-05T18:35:09.801Z,7
2023-04-05T18:37:11.784Z,6.2
2023-04-05T18:39:13.789Z,7.3
2023-04-05T18:43:17.882Z,7.7
2023-04-05T18:53:31.048Z,4.4
2023-04-05T18:55:33.047Z,5.3
2023-04-05T19:16:01.157Z,6.2
2023-04-05T19:18:03.121Z,6.1
2023-04-05T19:19:05.835Z,6.7
2023-04-05T19:21:07.688Z,5.6
2023-04-05T19:23:09.716Z,6.4
2023-04-05T19:25:11.688Z,5.7
2023-04-05T19:27:16.947Z,5.7
2023-04-05T19:31:20.989Z,6.7
2023-04-05T19:33:22.963Z,5.2
2023-04-05T19:37:26.982Z,6.1
2023-04-05T19:41:34.185Z,6.1
2023-04-05T19:43:36.181Z,5.7
2023-04-05T19:45:38.165Z,7.2
2023-04-05T19:51:44.145Z,6.3
2023-04-05T19:53:46.136Z,6.1
2023-04-05T19:55:51.364Z,7.4
2023-04-05T19:57:53.366Z,5.2
2023-04-05T19:59:55.358Z,6.4
2023-04-05T20:01:57.440Z,5.7
2023-04-05T20:03:59.373Z,7.2
2023-04-05T20:06:01.304Z,6.7
2023-04-05T20:08:03.326Z,7.1
2023-04-05T20:10:08.535Z,7.3
2023-04-05T20:12:10.542Z,7
2023-04-05T20:14:12.536Z,8.7
2023-04-05T20:16:41.426Z,8.4
2023-04-05T20:18:43.363Z,9
2023-04-05T20:20:45.389Z,8.6
2023-04-05T20:22:50.585Z,8.6
2023-04-05T20:24:52.574Z,8.6
2023-04-05T20:28:56.546Z,18.2
2023-04-05T20:30:58.523Z,18.9
2023-04-05T20:35:02.498Z,24.2
2023-04-05T20:37:07.778Z,25.7
2023-04-05T20:41:11.696Z,17.3
2023-04-05T20:43:13.659Z,16.9
2023-04-05T20:45:15.635Z,15.1
2023-04-05T20:53:26.744Z,13.1
2023-04-05T21:01:34.659Z,13.1
2023-04-05T21:03:36.727Z,14.2
2023-04-05T21:09:45.688Z,13.3
2023-04-05T21:10:48.273Z,15.2
2023-04-05T21:14:52.224Z,14.8
2023-04-05T21:18:59.399Z,13.6
2023-04-05T21:23:03.277Z,12.7
2023-04-05T21:29:09.334Z,13.1
2023-04-05T21:31:11.228Z,13
2023-04-05T21:33:16.249Z,13.9
2023-04-05T21:37:20.176Z,11.7
2023-04-05T21:39:22.112Z,12.5
2023-04-05T21:43:25.991Z,13.2
2023-04-05T21:45:27.944Z,15
2023-04-05T22:05:53.883Z,8.7
2023-04-05T22:06:56.465Z,10
2023-04-05T22:08:58.397Z,10.4
2023-04-05T22:11:00.348Z,9.6
2023-04-05T22:13:02.313Z,9.4
2023-04-05T22:15:07.400Z,10.2
2023-04-05T22:21:13.220Z,10
2023-04-05T22:23:15.187Z,10.6
2023-04-05T22:27:19.044Z,9.2
2023-04-05T22:29:24.189Z,8.9
2023-04-05T22:37:31.834Z,10
2023-04-05T22:39:33.809Z,10.1
2023-04-05T22:41:35.710Z,9.6
2023-04-05T22:43:40.893Z,9.4
2023-04-05T22:45:42.949Z,9.7
2023-04-05T22:47:44.716Z,8.2
2023-04-05T22:49:46.627Z,9.9
2023-04-05T22:51:48.565Z,10.4
2023-04-05T22:53:50.469Z,9.9
2023-04-05T22:57:57.522Z,9.8
2023-04-05T23:03:03.966Z,10.4
2023-04-05T23:05:05.880Z,10.3
2023-04-05T23:07:07.787Z,9.9
2023-04-05T23:11:14.824Z,9.7
2023-04-05T23:13:16.756Z,8.6
2023-04-05T23:15:18.672Z,7.3
2023-04-05T23:17:20.577Z,9.4
2023-04-05T23:19:22.476Z,9.6
2023-04-05T23:23:26.316Z,9.1
2023-04-05T23:25:31.500Z,9.9
2023-04-05T23:27:33.359Z,9.1
2023-04-05T23:29:35.278Z,8.5
2023-04-05T23:31:37.289Z,8.9
2023-04-05T23:35:41.025Z,9.6
2023-04-05T23:37:42.936Z,7.8
2023-04-05T23:39:48.046Z,8.4
2023-04-05T23:41:49.954Z,7.8
2023-04-05T23:43:51.861Z,8.9
2023-04-05T23:45:53.728Z,9.9
2023-04-05T23:47:55.721Z,9.4
2023-04-05T23:49:57.565Z,9.1
2023-04-05T23:51:59.423Z,8.6
2023-04-05T23:54:04.523Z,8.5
